Time;durP1;ratioP1;P1;durP2;ratioP2;P2;SDS_P1;SDS_P2;PMS_P1;PMS_P2;Temp;Humidity;BMP_temperature;BMP_pressure;BME280_temperature;BME280_humidity;BME280_pressure;Samples;Min_cycle;Max_cycle;Signal;HPM_P1;HPM_P2
2021/11/16 00:02:18;;;;;;;0.40;0.40;;;;;;;;;;5080819;28;20100;-81
2021/11/16 00:04:44;;;;;;;0.77;0.77;;;;;;;;;;5079894;28;20097;-81
2021/11/16 00:07:11;;;;;;;0.40;0.40;;;;;;;;;;5079887;28;20036;-81
2021/11/16 00:09:37;;;;;;;0.40;0.40;;;;;;;;;;5078874;28;20032;-81
2021/11/16 00:12:03;;;;;;;0.40;0.40;;;;;;;;;;5078262;28;20035;-80
2021/11/16 00:14:31;;;;;;;0.70;0.70;;;;;;;;;;5080976;28;20503;-81
2021/11/16 00:16:57;;;;;;;0.40;0.40;;;;;;;;;;5077887;28;20123;-81
2021/11/16 00:19:24;;;;;;;0.30;0.30;;;;;;;;;;5077117;28;20032;-81
2021/11/16 00:21:50;;;;;;;0.40;0.40;;;;;;;;;;5077367;28;20107;-80
2021/11/16 00:24:25;;;;;;;0.40;0.40;;;;;;;;;;5079139;28;20032;-81
2021/11/16 00:26:51;;;;;;;0.38;0.38;;;;;;;;;;5082724;28;20020;-81
2021/11/16 00:29:17;;;;;;;0.55;0.55;;;;;;;;;;5077980;28;20077;-82
2021/11/16 00:31:43;;;;;;;0.40;0.40;;;;;;;;;;5076957;28;20048;-80
2021/11/16 00:34:09;;;;;;;0.30;0.30;;;;;;;;;;5079175;28;20032;-81
2021/11/16 00:36:36;;;;;;;0.30;0.30;;;;;;;;;;5079846;28;20145;-82
2021/11/16 00:39:03;;;;;;;0.20;0.20;;;;;;;;;;5082283;28;20115;-81
2021/11/16 00:41:30;;;;;;;0.30;0.30;;;;;;;;;;5080401;28;20020;-82
2021/11/16 00:43:56;;;;;;;0.30;0.30;;;;;;;;;;5078368;28;20051;-81
2021/11/16 00:46:22;;;;;;;0.30;0.30;;;;;;;;;;5078516;28;20717;-82
2021/11/16 00:48:48;;;;;;;0.20;0.20;;;;;;;;;;5078965;28;20115;-82
2021/11/16 00:51:14;;;;;;;0.30;0.30;;;;;;;;;;5079289;28;20067;-82
2021/11/16 00:53:41;;;;;;;0.30;0.30;;;;;;;;;;5081463;28;20598;-84
2021/11/16 00:56:08;;;;;;;0.30;0.30;;;;;;;;;;5084613;28;21109;-82
2021/11/16 00:58:34;;;;;;;;;;;;;;;;;;5083662;28;20028;-81
2021/11/16 01:01:00;;;;;;;0.20;0.20;;;;;;;;;;5079580;28;19919;-82
2021/11/16 01:03:27;;;;;;;0.57;0.57;;;;;;;;;;5085021;28;20498;-82
2021/11/16 01:05:53;;;;;;;0.20;0.20;;;;;;;;;;5081976;28;20075;-82
2021/11/16 01:08:20;;;;;;;0.20;0.20;;;;;;;;;;5077089;28;20859;-83
2021/11/16 01:10:46;;;;;;;0.20;0.20;;;;;;;;;;5081295;28;20077;-81
2021/11/16 01:13:13;;;;;;;0.30;0.30;;;;;;;;;;5082047;28;20020;-82
2021/11/16 01:15:41;;;;;;;0.20;0.20;;;;;;;;;;5080402;28;20050;-80
2021/11/16 01:18:07;;;;;;;0.20;0.20;;;;;;;;;;5081934;28;20028;-81
2021/11/16 01:20:34;;;;;;;0.20;0.20;;;;;;;;;;5082820;28;20442;-80
2021/11/16 01:23:00;;;;;;;0.20;0.20;;;;;;;;;;5081990;28;20051;-80
2021/11/16 01:25:27;;;;;;;0.20;0.20;;;;;;;;;;5083256;28;20078;-80
2021/11/16 01:27:57;;;;;;;;;;;;;;;;;;5083276;28;20055;-80
2021/11/16 01:30:26;;;;;;;0.20;0.20;;;;;;;;;;5079351;28;19958;-80
2021/11/16 01:33:03;;;;;;;0.10;0.10;;;;;;;;;;5082591;28;20032;-80
2021/11/16 01:35:29;;;;;;;0.10;0.10;;;;;;;;;;5081914;28;20035;-80
2021/11/16 01:37:55;;;;;;;0.30;0.30;;;;;;;;;;5080969;28;20030;-81
2021/11/16 01:40:22;;;;;;;0.20;0.20;;;;;;;;;;5081651;28;20115;-81
2021/11/16 01:42:50;;;;;;;0.20;0.20;;;;;;;;;;5081777;28;20040;-81
2021/11/16 01:45:16;;;;;;;0.20;0.20;;;;;;;;;;5080869;28;20063;-80
2021/11/16 01:47:43;;;;;;;0.40;0.40;;;;;;;;;;5081774;28;20028;-81
2021/11/16 01:50:10;;;;;;;0.28;0.28;;;;;;;;;;5081574;28;20035;-83
2021/11/16 01:52:36;;;;;;;0.22;0.22;;;;;;;;;;5080242;28;20035;-83
2021/11/16 01:55:02;;;;;;;0.20;0.20;;;;;;;;;;5080301;28;20059;-82
2021/11/16 01:57:28;;;;;;;0.20;0.20;;;;;;;;;;5080546;28;20283;-81
2021/11/16 01:59:54;;;;;;;0.30;0.30;;;;;;;;;;5082439;28;20028;-81
2021/11/16 02:02:20;;;;;;;0.30;0.30;;;;;;;;;;5080809;28;20020;-82
2021/11/16 02:04:47;;;;;;;0.20;0.20;;;;;;;;;;5079620;28;20040;-81
2021/11/16 02:07:13;;;;;;;0.30;0.30;;;;;;;;;;5079433;28;20036;-80
2021/11/16 02:09:39;;;;;;;0.30;0.30;;;;;;;;;;5082750;28;20433;-81
2021/11/16 02:12:05;;;;;;;0.30;0.30;;;;;;;;;;5081706;28;20039;-81
2021/11/16 02:14:31;;;;;;;0.20;0.20;;;;;;;;;;5080649;28;20028;-81
2021/11/16 02:16:58;;;;;;;0.20;0.20;;;;;;;;;;5080416;28;20043;-81
2021/11/16 02:19:24;;;;;;;0.20;0.20;;;;;;;;;;5081475;28;20032;-80
2021/11/16 02:21:51;;;;;;;0.45;0.45;;;;;;;;;;5079952;28;20043;-80
2021/11/16 02:24:17;;;;;;;;;;;;;;;;;;5081814;28;20032;-80
2021/11/16 02:26:43;;;;;;;0.30;0.30;;;;;;;;;;5079330;28;19928;-81
2021/11/16 02:29:09;;;;;;;0.30;0.30;;;;;;;;;;5079802;28;20028;-82
2021/11/16 02:31:35;;;;;;;0.40;0.40;;;;;;;;;;5078555;28;20123;-81
2021/11/16 02:34:02;;;;;;;0.30;0.30;;;;;;;;;;5078205;28;20028;-82
2021/11/16 02:36:30;;;;;;;0.30;0.30;;;;;;;;;;5081644;28;20032;-82
2021/11/16 02:38:57;;;;;;;0.50;0.50;;;;;;;;;;5080769;28;20030;-81
2021/11/16 02:41:29;;;;;;;0.90;0.90;;;;;;;;;;5078928;28;20115;-82
2021/11/16 02:43:55;;;;;;;0.70;0.70;;;;;;;;;;5079936;28;20031;-83
2021/11/16 02:46:21;;;;;;;0.50;0.50;;;;;;;;;;5080437;28;20035;-83
2021/11/16 02:48:47;;;;;;;0.50;0.50;;;;;;;;;;5096218;28;20028;-83
2021/11/16 02:51:13;;;;;;;0.43;0.43;;;;;;;;;;5080301;28;20067;-84
2021/11/16 02:53:40;;;;;;;0.50;0.50;;;;;;;;;;5096676;28;20100;-83
2021/11/16 02:56:07;;;;;;;0.55;0.55;;;;;;;;;;5079101;28;20282;-84
2021/11/16 02:58:33;;;;;;;0.55;0.55;;;;;;;;;;5079611;28;20028;-83
2021/11/16 03:01:04;;;;;;;0.50;0.50;;;;;;;;;;5079367;28;20035;-82
2021/11/16 03:03:30;;;;;;;1.35;1.35;;;;;;;;;;5079484;28;20024;-83
2021/11/16 03:05:56;;;;;;;0.40;0.40;;;;;;;;;;5079027;28;20039;-82
2021/11/16 03:08:25;;;;;;;0.40;0.40;;;;;;;;;;5078868;28;20047;-81
2021/11/16 03:10:55;;;;;;;0.50;0.50;;;;;;;;;;5079663;28;20127;-83
2021/11/16 03:13:21;;;;;;;0.40;0.40;;;;;;;;;;5078991;28;20395;-82
2021/11/16 03:15:48;;;;;;;0.40;0.40;;;;;;;;;;5094147;28;20127;-83
2021/11/16 03:18:15;;;;;;;0.40;0.40;;;;;;;;;;5078474;28;20074;-84
2021/11/16 03:20:41;;;;;;;0.50;0.50;;;;;;;;;;5079333;28;20036;-78
2021/11/16 03:23:26;;;;;;;0.73;0.73;;;;;;;;;;5078802;28;20157;-81
2021/11/16 03:25:59;;;;;;;0.40;0.40;;;;;;;;;;5077225;28;20095;-81
2021/11/16 03:28:28;;;;;;;0.40;0.40;;;;;;;;;;5078071;28;20028;-80
2021/11/16 03:30:56;;;;;;;0.40;0.40;;;;;;;;;;5078426;28;20027;-80
2021/11/16 03:33:23;;;;;;;0.40;0.40;;;;;;;;;;5079334;28;20499;-81
2021/11/16 03:35:50;;;;;;;0.40;0.40;;;;;;;;;;5080192;28;20028;-81
2021/11/16 03:38:18;;;;;;;0.40;0.40;;;;;;;;;;5079679;28;20047;-82
2021/11/16 03:40:44;;;;;;;0.40;0.40;;;;;;;;;;5076691;28;20032;-82
2021/11/16 03:43:10;;;;;;;0.40;0.40;;;;;;;;;;5078420;28;20554;-83
2021/11/16 03:45:37;;;;;;;0.40;0.40;;;;;;;;;;5079600;28;20060;-82
2021/11/16 03:48:03;;;;;;;;;;;;;;;;;;5081087;28;20023;-84
2021/11/16 03:50:31;;;;;;;0.40;0.40;;;;;;;;;;5079738;28;19912;-84
2021/11/16 03:52:58;;;;;;;0.40;0.40;;;;;;;;;;5079935;28;20085;-84
2021/11/16 03:55:26;;;;;;;0.40;0.40;;;;;;;;;;5078289;28;20032;-81
2021/11/16 03:57:55;;;;;;;0.40;0.40;;;;;;;;;;5079449;28;20086;-82
2021/11/16 04:00:23;;;;;;;0.30;0.30;;;;;;;;;;5079788;28;20016;-82
2021/11/16 04:02:49;;;;;;;0.40;0.40;;;;;;;;;;5079841;28;20028;-81
2021/11/16 04:05:16;;;;;;;0.40;0.40;;;;;;;;;;5079167;28;20066;-82
2021/11/16 04:07:43;;;;;;;0.40;0.40;;;;;;;;;;5076382;28;20482;-83
2021/11/16 04:10:11;;;;;;;;;;;;;;;;;;5079678;28;20290;-81
2021/11/16 04:12:38;;;;;;;0.30;0.30;;;;;;;;;;5077580;28;20473;-79
2021/11/16 04:15:04;;;;;;;0.30;0.30;;;;;;;;;;5079640;28;20108;-80
2021/11/16 04:17:32;;;;;;;0.40;0.40;;;;;;;;;;5079834;28;20106;-80
2021/11/16 04:19:59;;;;;;;0.40;0.40;;;;;;;;;;5078693;28;20043;-82
2021/11/16 04:22:26;;;;;;;0.30;0.30;;;;;;;;;;5079579;28;20515;-80
2021/11/16 04:24:52;;;;;;;0.40;0.40;;;;;;;;;;5077815;28;20505;-81
2021/11/16 04:27:18;;;;;;;0.30;0.30;;;;;;;;;;5079715;28;20568;-81
2021/11/16 04:29:44;;;;;;;0.40;0.40;;;;;;;;;;5080388;28;20028;-81
2021/11/16 04:32:10;;;;;;;0.40;0.40;;;;;;;;;;5084431;28;20028;-81
2021/11/16 04:34:36;;;;;;;1.00;1.00;;;;;;;;;;5083738;28;20020;-81
2021/11/16 04:37:02;;;;;;;0.30;0.30;;;;;;;;;;5083930;28;20037;-80
2021/11/16 04:39:28;;;;;;;0.30;0.30;;;;;;;;;;5100648;28;20167;-80
2021/11/16 04:41:54;;;;;;;0.30;0.30;;;;;;;;;;5083126;28;20470;-80
2021/11/16 04:44:20;;;;;;;0.40;0.40;;;;;;;;;;5082287;28;20076;-80
2021/11/16 04:46:47;;;;;;;0.47;0.47;;;;;;;;;;5082210;28;20551;-81
2021/11/16 04:49:31;;;;;;;0.40;0.40;;;;;;;;;;5081551;28;20040;-81
2021/11/16 05:02:41;;;;;;;0.40;0.40;;;;;;;;;;5083513;28;20024;-83
2021/11/16 05:05:18;;;;;;;0.40;0.40;;;;;;;;;;5082664;28;20060;-83
2021/11/16 05:07:52;;;;;;;0.40;0.40;;;;;;;;;;5082382;28;20042;-84
2021/11/16 05:10:19;;;;;;;0.40;0.40;;;;;;;;;;5083152;28;20024;-83
2021/11/16 05:12:45;;;;;;;0.40;0.40;;;;;;;;;;5082073;28;20039;-85
2021/11/16 05:15:14;;;;;;;0.40;0.40;;;;;;;;;;5080530;28;20031;-85
2021/11/16 05:17:40;;;;;;;1.42;1.42;;;;;;;;;;5098542;28;20278;-82
2021/11/16 05:20:07;;;;;;;0.30;0.30;;;;;;;;;;5082231;28;20028;-84
2021/11/16 05:22:36;;;;;;;0.30;0.30;;;;;;;;;;5081671;28;20050;-84
2021/11/16 05:25:03;;;;;;;0.30;0.30;;;;;;;;;;5081478;28;20132;-84
2021/11/16 05:27:29;;;;;;;;;;;;;;;;;;5083533;28;20031;-85
2021/11/16 05:29:55;;;;;;;0.30;0.30;;;;;;;;;;5084099;28;20685;-84
2021/11/16 05:32:21;;;;;;;0.30;0.30;;;;;;;;;;5083123;28;20399;-82
2021/11/16 05:34:47;;;;;;;0.40;0.40;;;;;;;;;;5083345;28;20028;-83
2021/11/16 05:37:13;;;;;;;0.40;0.40;;;;;;;;;;5096756;28;20705;-84
2021/11/16 05:39:39;;;;;;;0.50;0.50;;;;;;;;;;5082312;28;20024;-84
2021/11/16 05:42:05;;;;;;;0.60;0.60;;;;;;;;;;5081093;28;20278;-86
2021/11/16 05:44:32;;;;;;;0.40;0.40;;;;;;;;;;5083719;28;20503;-86
2021/11/16 05:46:59;;;;;;;0.40;0.40;;;;;;;;;;5083810;28;20032;-86
2021/11/16 05:49:31;;;;;;;0.40;0.40;;;;;;;;;;5082313;28;20436;-84
2021/11/16 05:51:57;;;;;;;0.40;0.40;;;;;;;;;;5082673;28;20038;-85
2021/11/16 05:54:28;;;;;;;0.40;0.40;;;;;;;;;;5082044;28;20063;-85
2021/11/16 05:56:54;;;;;;;0.40;0.40;;;;;;;;;;5081805;28;20032;-85
2021/11/16 05:59:20;;;;;;;0.40;0.40;;;;;;;;;;5081737;28;20061;-85
2021/11/16 06:01:46;;;;;;;0.50;0.50;;;;;;;;;;5096397;28;20142;-83
2021/11/16 06:04:12;;;;;;;0.47;0.47;;;;;;;;;;5080324;28;20028;-88
2021/11/16 06:06:40;;;;;;;0.30;0.30;;;;;;;;;;5080433;28;20507;-87
2021/11/16 06:09:07;;;;;;;0.30;0.30;;;;;;;;;;5081497;28;20836;-85
2021/11/16 06:11:34;;;;;;;0.40;0.40;;;;;;;;;;5078349;28;20028;-84
2021/11/16 06:14:00;;;;;;;0.40;0.40;;;;;;;;;;5077983;28;20030;-84
2021/11/16 06:16:27;;;;;;;0.40;0.40;;;;;;;;;;5096970;27;20071;-81
2021/11/16 06:18:54;;;;;;;0.40;0.40;;;;;;;;;;5085995;27;20029;-87
2021/11/16 06:21:21;;;;;;;0.40;0.40;;;;;;;;;;5075499;28;20036;-85
2021/11/16 06:23:47;;;;;;;0.40;0.40;;;;;;;;;;5096160;28;20024;-84
2021/11/16 06:26:13;;;;;;;0.30;0.30;;;;;;;;;;5076766;28;20051;-85
2021/11/16 06:28:40;;;;;;;0.40;0.40;;;;;;;;;;5074782;28;20025;-81
2021/11/16 06:31:06;;;;;;;0.30;0.30;;;;;;;;;;5072729;28;20533;-81
2021/11/16 06:33:32;;;;;;;0.38;0.38;;;;;;;;;;5066944;28;20032;-79
2021/11/16 06:35:58;;;;;;;0.50;0.50;;;;;;;;;;5073292;28;20060;-79
2021/11/16 06:38:25;;;;;;;0.40;0.40;;;;;;;;;;5079478;28;20033;-77
2021/11/16 06:40:51;;;;;;;0.40;0.40;;;;;;;;;;5079455;28;20286;-76
2021/11/16 06:43:21;;;;;;;0.40;0.40;;;;;;;;;;5080326;28;20024;-80
2021/11/16 06:45:49;;;;;;;0.30;0.30;;;;;;;;;;5079724;28;20142;-80
2021/11/16 06:48:16;;;;;;;0.40;0.40;;;;;;;;;;5081050;28;20032;-81
2021/11/16 06:50:42;;;;;;;0.40;0.40;;;;;;;;;;5083777;28;20036;-82
2021/11/16 06:53:08;;;;;;;0.30;0.30;;;;;;;;;;5072228;28;20025;-81
2021/11/16 06:55:34;;;;;;;0.70;0.70;;;;;;;;;;5084378;28;20040;-80
2021/11/16 06:58:00;;;;;;;0.60;0.60;;;;;;;;;;5069273;28;20493;-80
2021/11/16 07:00:27;;;;;;;0.40;0.40;;;;;;;;;;5067427;28;20032;-81
2021/11/16 07:02:56;;;;;;;0.30;0.30;;;;;;;;;;5079888;28;20266;-81
2021/11/16 07:05:22;;;;;;;0.40;0.40;;;;;;;;;;5077154;28;20116;-81
2021/11/16 07:07:48;;;;;;;0.30;0.30;;;;;;;;;;5092435;28;20027;-82
2021/11/16 07:10:18;;;;;;;0.30;0.30;;;;;;;;;;5092422;28;20532;-81
2021/11/16 07:12:44;;;;;;;0.30;0.30;;;;;;;;;;5079925;28;20027;-80
2021/11/16 07:15:12;;;;;;;0.67;0.67;;;;;;;;;;5079868;28;20688;-81
2021/11/16 07:17:38;;;;;;;0.30;0.30;;;;;;;;;;5094983;28;20119;-80
2021/11/16 07:20:04;;;;;;;0.40;0.40;;;;;;;;;;5077570;28;20123;-79
2021/11/16 07:22:31;;;;;;;0.30;0.30;;;;;;;;;;5078734;28;20044;-79
2021/11/16 07:24:58;;;;;;;;;;;;;;;;;;5067423;28;20037;-79
2021/11/16 07:27:33;;;;;;;0.38;0.38;;;;;;;;;;5081083;28;19916;-79
2021/11/16 07:29:59;;;;;;;0.38;0.38;;;;;;;;;;5079869;28;20105;-80
2021/11/16 07:32:28;;;;;;;0.30;0.30;;;;;;;;;;5079081;28;20864;-81
2021/11/16 07:35:04;;;;;;;0.40;0.40;;;;;;;;;;5074278;28;20047;-79
2021/11/16 07:37:32;;;;;;;1.03;1.03;;;;;;;;;;5069136;28;20020;-82
2021/11/16 07:40:05;;;;;;;0.50;0.50;;;;;;;;;;5096575;28;20024;-80
2021/11/16 07:42:32;;;;;;;0.40;0.40;;;;;;;;;;5081637;28;20036;-81
2021/11/16 07:45:06;;;;;;;0.40;0.40;;;;;;;;;;5079355;28;20039;-81
2021/11/16 07:47:40;;;;;;;0.30;0.30;;;;;;;;;;5070240;28;20055;-81
2021/11/16 07:50:08;;;;;;;0.40;0.40;;;;;;;;;;5073944;28;20024;-81
2021/11/16 07:52:34;;;;;;;0.40;0.40;;;;;;;;;;5092546;28;20035;-80
2021/11/16 07:55:00;;;;;;;0.40;0.40;;;;;;;;;;5078421;28;20028;-81
2021/11/16 07:57:26;;;;;;;0.40;0.40;;;;;;;;;;5079188;28;20490;-80
2021/11/16 07:59:55;;;;;;;0.53;0.53;;;;;;;;;;5078997;28;20036;-81
2021/11/16 08:02:34;;;;;;;0.40;0.40;;;;;;;;;;5076909;28;20129;-81
2021/11/16 08:05:28;;;;;;;0.40;0.40;;;;;;;;;;5081992;28;20031;-80
2021/11/16 08:08:14;;;;;;;0.40;0.40;;;;;;;;;;5079093;28;20713;-81
2021/11/16 08:10:43;;;;;;;0.40;0.40;;;;;;;;;;5089587;28;20392;-80
2021/11/16 08:13:16;;;;;;;0.40;0.40;;;;;;;;;;5082456;28;20097;-81
2021/11/16 08:15:43;;;;;;;0.30;0.30;;;;;;;;;;5080692;28;20031;-82
2021/11/16 08:18:15;;;;;;;0.80;0.80;;;;;;;;;;5069517;28;20062;-82
2021/11/16 08:20:42;;;;;;;0.50;0.50;;;;;;;;;;5083530;28;20153;-82
2021/11/16 08:23:09;;;;;;;0.40;0.40;;;;;;;;;;5080844;28;20040;-83
2021/11/16 08:25:36;;;;;;;0.40;0.40;;;;;;;;;;5080837;28;20511;-82
2021/11/16 08:28:03;;;;;;;0.40;0.40;;;;;;;;;;5081601;28;20851;-82
2021/11/16 08:30:31;;;;;;;;;;;;;;;;;;5086187;28;20027;-82
2021/11/16 08:32:59;;;;;;;0.40;0.40;;;;;;;;;;5066588;28;19912;-82
2021/11/16 08:35:25;;;;;;;0.30;0.30;;;;;;;;;;5080039;28;20032;-82
2021/11/16 08:37:56;;;;;;;0.30;0.30;;;;;;;;;;5096391;28;20032;-82
2021/11/16 08:40:23;;;;;;;0.40;0.40;;;;;;;;;;5080090;28;20039;-82
2021/11/16 08:42:52;;;;;;;1.00;1.00;;;;;;;;;;5083596;28;20028;-82
2021/11/16 08:45:23;;;;;;;0.45;0.45;;;;;;;;;;5081714;28;20163;-82
2021/11/16 08:47:51;;;;;;;0.30;0.30;;;;;;;;;;5071690;28;20079;-81
2021/11/16 08:50:20;;;;;;;0.30;0.30;;;;;;;;;;5078887;28;20115;-82
2021/11/16 08:52:47;;;;;;;0.40;0.40;;;;;;;;;;5080881;28;20036;-82
2021/11/16 08:55:18;;;;;;;0.40;0.40;;;;;;;;;;5080203;28;20036;-82
2021/11/16 08:57:45;;;;;;;0.40;0.40;;;;;;;;;;5082571;28;20021;-82
2021/11/16 09:00:15;;;;;;;0.63;0.63;;;;;;;;;;5069433;28;20583;-82
2021/11/16 09:02:41;;;;;;;0.50;0.50;;;;;;;;;;5097575;28;20069;-82
2021/11/16 09:05:12;;;;;;;0.40;0.40;;;;;;;;;;5079740;28;20035;-82
2021/11/16 09:07:47;;;;;;;0.32;0.32;;;;;;;;;;5096313;28;20409;-82
2021/11/16 09:10:13;;;;;;;0.40;0.40;;;;;;;;;;5080587;28;20058;-82
2021/11/16 09:12:54;;;;;;;0.43;0.43;;;;;;;;;;5084337;28;20024;-81
2021/11/16 09:15:31;;;;;;;70.50;66.03;;;;;;;;;;5083055;28;20032;-81
2021/11/16 09:18:17;;;;;;;30.10;28.45;;;;;;;;;;5066164;28;20495;-82
2021/11/16 09:20:45;;;;;;;0.30;0.30;;;;;;;;;;5085518;28;20032;-82
2021/11/16 09:23:20;;;;;;;0.30;0.30;;;;;;;;;;5095054;28;20052;-82
2021/11/16 09:25:50;;;;;;;0.30;0.30;;;;;;;;;;5079656;28;20043;-82
2021/11/16 09:28:27;;;;;;;0.82;0.82;;;;;;;;;;5080064;28;20074;-82
2021/11/16 09:30:53;;;;;;;;;;;;;;;;;;5082607;28;20074;-82
2021/11/16 09:33:20;;;;;;;0.70;0.70;;;;;;;;;;5082353;28;20014;-82
2021/11/16 09:36:01;;;;;;;0.70;0.70;;;;;;;;;;5070868;28;20058;-82
2021/11/16 09:38:31;;;;;;;0.50;0.50;;;;;;;;;;5079140;28;20055;-82
2021/11/16 09:40:57;;;;;;;0.40;0.40;;;;;;;;;;5079347;28;20028;-82
2021/11/16 09:43:26;;;;;;;0.22;0.22;;;;;;;;;;5079299;28;20032;-81
2021/11/16 09:45:53;;;;;;;0.20;0.20;;;;;;;;;;5081544;28;20064;-81
2021/11/16 09:48:26;;;;;;;0.20;0.20;;;;;;;;;;5081846;28;20478;-81
2021/11/16 09:50:52;;;;;;;0.30;0.30;;;;;;;;;;5070588;28;20031;-82
2021/11/16 09:53:19;;;;;;;0.40;0.40;;;;;;;;;;5077504;28;20020;-82
2021/11/16 09:55:45;;;;;;;0.30;0.30;;;;;;;;;;5079094;28;20119;-82
2021/11/16 09:58:23;;;;;;;0.50;0.50;;;;;;;;;;5079832;28;20035;-82
2021/11/16 10:00:50;;;;;;;0.50;0.50;;;;;;;;;;5097325;28;20031;-81
2021/11/16 10:03:22;;;;;;;0.50;0.50;;;;;;;;;;5081658;28;20032;-82
2021/11/16 10:05:58;;;;;;;0.50;0.50;;;;;;;;;;5070552;28;20040;-82
2021/11/16 10:08:24;;;;;;;0.50;0.50;;;;;;;;;;5094180;28;20056;-82
2021/11/16 10:10:52;;;;;;;0.50;0.50;;;;;;;;;;5091315;28;20032;-81
2021/11/16 10:13:20;;;;;;;0.60;0.60;;;;;;;;;;5068666;28;20095;-81
2021/11/16 10:15:48;;;;;;;0.52;0.52;;;;;;;;;;5081415;28;20040;-81
2021/11/16 10:18:15;;;;;;;0.50;0.50;;;;;;;;;;5080352;28;20772;-82
2021/11/16 10:20:43;;;;;;;0.50;0.50;;;;;;;;;;5080839;28;20513;-82
2021/11/16 10:23:11;;;;;;;0.50;0.50;;;;;;;;;;5094099;28;20044;-81
2021/11/16 10:25:39;;;;;;;0.50;0.50;;;;;;;;;;5094181;28;20449;-82
2021/11/16 10:28:14;;;;;;;0.50;0.50;;;;;;;;;;5078428;28;20025;-82
2021/11/16 10:30:41;;;;;;;0.40;0.40;;;;;;;;;;5067202;28;20664;-82
2021/11/16 10:33:08;;;;;;;;;;;;;;;;;;5069294;28;20029;-82
2021/11/16 10:35:34;;;;;;;;;;;;;;;;;;5081042;28;20686;-82
2021/11/16 10:38:04;;;;;;;0.50;0.50;;;;;;;;;;5078199;28;19919;-82
2021/11/16 10:40:30;;;;;;;0.55;0.55;;;;;;;;;;5078538;28;20043;-82
2021/11/16 10:42:58;;;;;;;0.70;0.70;;;;;;;;;;5079968;28;20028;-82
2021/11/16 10:45:26;;;;;;;0.40;0.40;;;;;;;;;;5081692;28;20101;-83
2021/11/16 10:47:52;;;;;;;0.40;0.40;;;;;;;;;;5080701;28;20036;-82
2021/11/16 10:50:20;;;;;;;0.50;0.50;;;;;;;;;;5078561;28;20048;-82
2021/11/16 10:52:56;;;;;;;0.50;0.50;;;;;;;;;;5078057;28;20038;-82
2021/11/16 10:55:22;;;;;;;0.30;0.30;;;;;;;;;;5093566;28;20090;-82
2021/11/16 10:57:52;;;;;;;0.40;0.40;;;;;;;;;;5096423;28;20027;-82
2021/11/16 11:00:28;;;;;;;0.40;0.40;;;;;;;;;;5080613;28;20516;-82
2021/11/16 11:03:15;;;;;;;1.17;1.17;;;;;;;;;;5069123;28;20519;-82
2021/11/16 11:05:41;;;;;;;0.40;0.40;;;;;;;;;;5094950;28;20447;-82
2021/11/16 11:08:07;;;;;;;0.40;0.40;;;;;;;;;;5093063;28;20028;-82
2021/11/16 11:10:43;;;;;;;0.40;0.40;;;;;;;;;;5093057;28;20028;-82
2021/11/16 11:13:16;;;;;;;0.45;0.45;;;;;;;;;;5093028;28;20031;-82
2021/11/16 11:15:42;;;;;;;0.45;0.45;;;;;;;;;;5081708;28;20032;-82
2021/11/16 11:18:08;;;;;;;0.40;0.40;;;;;;;;;;5078630;28;20067;-82
2021/11/16 11:20:38;;;;;;;0.30;0.30;;;;;;;;;;5094079;28;20506;-82
2021/11/16 11:23:22;;;;;;;0.30;0.30;;;;;;;;;;5092326;28;20052;-81
2021/11/16 11:25:50;;;;;;;0.30;0.30;;;;;;;;;;5092818;28;20485;-82
2021/11/16 11:28:34;;;;;;;0.90;0.90;;;;;;;;;;5093386;28;20029;-82
2021/11/16 11:31:02;;;;;;;0.40;0.40;;;;;;;;;;5094535;28;20029;-82
2021/11/16 11:33:48;;;;;;;0.50;0.50;;;;;;;;;;5081539;28;20031;-83
2021/11/16 11:36:18;;;;;;;0.50;0.50;;;;;;;;;;5096222;28;20024;-82
2021/11/16 11:38:44;;;;;;;0.50;0.50;;;;;;;;;;5078810;28;20141;-82
2021/11/16 11:41:10;;;;;;;0.47;0.47;;;;;;;;;;5092165;28;20063;-82
2021/11/16 11:43:36;;;;;;;0.50;0.50;;;;;;;;;;5092155;28;20028;-82
2021/11/16 11:46:02;;;;;;;1.10;1.10;;;;;;;;;;5093483;28;20363;-82
2021/11/16 11:48:28;;;;;;;0.40;0.40;;;;;;;;;;5080558;28;20514;-82
2021/11/16 11:51:20;;;;;;;0.40;0.40;;;;;;;;;;5079682;28;20266;-82
2021/11/16 11:53:46;;;;;;;0.50;0.50;;;;;;;;;;5068065;28;20127;-82
2021/11/16 11:56:15;;;;;;;0.40;0.40;;;;;;;;;;5080880;28;20129;-82
2021/11/16 11:58:43;;;;;;;0.45;0.45;;;;;;;;;;5070422;28;20035;-82
2021/11/16 12:01:13;;;;;;;0.50;0.50;;;;;;;;;;5076380;28;20039;-82
2021/11/16 12:03:40;;;;;;;0.40;0.40;;;;;;;;;;5081322;28;20081;-82
2021/11/16 12:06:07;;;;;;;0.40;0.40;;;;;;;;;;5080029;28;20036;-82
2021/11/16 12:08:33;;;;;;;0.20;0.20;;;;;;;;;;5078034;28;20028;-83
2021/11/16 12:10:59;;;;;;;0.20;0.20;;;;;;;;;;5076868;28;20866;-82
2021/11/16 12:13:26;;;;;;;0.40;0.40;;;;;;;;;;5076856;28;20040;-82
2021/11/16 12:16:01;;;;;;;0.35;0.35;;;;;;;;;;5094237;28;20755;-82
2021/11/16 12:18:41;;;;;;;0.40;0.40;;;;;;;;;;5078426;28;20093;-82
2021/11/16 12:21:27;;;;;;;0.80;0.80;;;;;;;;;;5094544;28;20020;-82
2021/11/16 12:24:00;;;;;;;0.40;0.40;;;;;;;;;;5067800;28;20416;-82
2021/11/16 12:26:28;;;;;;;0.50;0.50;;;;;;;;;;5090923;28;20148;-82
2021/11/16 12:29:10;;;;;;;0.47;0.47;;;;;;;;;;5073381;28;20029;-82
2021/11/16 12:31:36;;;;;;;0.40;0.40;;;;;;;;;;5068714;28;20027;-82
2021/11/16 12:34:02;;;;;;;0.30;0.30;;;;;;;;;;5093286;28;20145;-82
2021/11/16 12:36:28;;;;;;;0.40;0.40;;;;;;;;;;5080738;28;20139;-83
2021/11/16 12:38:54;;;;;;;0.30;0.30;;;;;;;;;;5094549;28;20115;-82
2021/11/16 12:41:32;;;;;;;0.40;0.40;;;;;;;;;;5076450;28;20036;-82
2021/11/16 12:44:08;;;;;;;0.40;0.40;;;;;;;;;;5076792;28;20139;-82
2021/11/16 12:46:37;;;;;;;0.30;0.30;;;;;;;;;;5092274;28;20119;-82
2021/11/16 12:49:04;;;;;;;0.30;0.30;;;;;;;;;;5079014;28;20439;-82
2021/11/16 12:51:33;;;;;;;0.30;0.30;;;;;;;;;;5082110;28;20035;-82
2021/11/16 12:54:00;;;;;;;0.30;0.30;;;;;;;;;;5098631;28;20039;-82
2021/11/16 12:56:46;;;;;;;0.30;0.30;;;;;;;;;;5095592;28;20080;-82
2021/11/16 12:59:13;;;;;;;0.55;0.55;;;;;;;;;;5040909;28;20044;-82
2021/11/16 13:01:43;;;;;;;0.40;0.40;;;;;;;;;;5061905;28;20040;-82
2021/11/16 13:04:11;;;;;;;0.30;0.30;;;;;;;;;;5041371;28;20041;-82
2021/11/16 13:06:38;;;;;;;0.50;0.50;;;;;;;;;;5062487;28;20183;-82
2021/11/16 13:09:05;;;;;;;0.40;0.40;;;;;;;;;;5060092;28;20036;-82
2021/11/16 13:11:41;;;;;;;0.30;0.30;;;;;;;;;;5062670;28;20515;-82
2021/11/16 13:14:09;;;;;;;0.40;0.40;;;;;;;;;;5043848;28;20029;-82
2021/11/16 13:16:35;;;;;;;0.20;0.20;;;;;;;;;;5061787;28;20044;-82
2021/11/16 13:19:01;;;;;;;0.30;0.30;;;;;;;;;;5046054;28;20524;-82
2021/11/16 13:21:28;;;;;;;0.40;0.40;;;;;;;;;;5061282;28;20063;-82
2021/11/16 13:23:55;;;;;;;;;;;;;;;;;;5063880;28;20291;-82
2021/11/16 13:26:23;;;;;;;0.30;0.30;;;;;;;;;;5061417;28;19920;-81
2021/11/16 13:31:32;;;;;;;0.50;0.50;;;;;;;;;;5061632;28;20170;-82
2021/11/16 13:33:58;;;;;;;0.50;0.50;;;;;;;;;;5061571;28;20107;-82
2021/11/16 13:36:30;;;;;;;1.00;1.00;;;;;;;;;;5073340;28;20156;-82
2021/11/16 13:39:08;;;;;;;0.40;0.40;;;;;;;;;;5081988;28;20051;-82
2021/11/16 13:41:57;;;;;;;0.40;0.40;;;;;;;;;;5095605;28;20035;-83
2021/11/16 13:44:27;;;;;;;0.40;0.40;;;;;;;;;;5079128;28;20028;-82
2021/11/16 13:46:55;;;;;;;0.40;0.40;;;;;;;;;;5091693;28;20040;-82
2021/11/16 13:49:41;;;;;;;0.40;0.40;;;;;;;;;;5069698;28;20637;-82
2021/11/16 13:52:11;;;;;;;0.30;0.30;;;;;;;;;;5095507;28;20041;-82
2021/11/16 13:54:38;;;;;;;0.40;0.40;;;;;;;;;;5068095;28;20823;-82
2021/11/16 13:57:06;;;;;;;0.40;0.40;;;;;;;;;;5082397;28;20495;-82
2021/11/16 13:59:33;;;;;;;0.40;0.40;;;;;;;;;;5079973;28;20032;-83
2021/11/16 14:02:03;;;;;;;0.50;0.50;;;;;;;;;;5078893;28;20036;-83
2021/11/16 14:04:30;;;;;;;0.40;0.40;;;;;;;;;;5078285;28;20021;-81
2021/11/16 14:07:13;;;;;;;0.73;0.73;;;;;;;;;;5081084;28;20032;-82
2021/11/16 14:09:39;;;;;;;0.40;0.40;;;;;;;;;;5067813;28;20584;-82
2021/11/16 14:12:06;;;;;;;0.40;0.40;;;;;;;;;;5082479;28;20121;-82
2021/11/16 14:14:32;;;;;;;0.40;0.40;;;;;;;;;;5079716;28;20103;-82
2021/11/16 14:16:59;;;;;;;0.50;0.50;;;;;;;;;;5079093;28;20040;-82
2021/11/16 14:19:26;;;;;;;0.88;0.88;;;;;;;;;;5078801;28;20032;-82
2021/11/16 14:21:52;;;;;;;0.40;0.40;;;;;;;;;;5081075;28;20048;-83
2021/11/16 14:24:27;;;;;;;0.40;0.40;;;;;;;;;;5081527;28;20020;-82
2021/11/16 14:26:53;;;;;;;0.40;0.40;;;;;;;;;;5070084;28;20229;-82
2021/11/16 14:29:19;;;;;;;3.27;3.17;;;;;;;;;;5092337;28;20024;-82
2021/11/16 14:31:45;;;;;;;0.20;0.20;;;;;;;;;;5078893;28;20283;-82
2021/11/16 14:34:17;;;;;;;0.67;0.67;;;;;;;;;;5078978;28;20036;-83
2021/11/16 14:36:46;;;;;;;0.20;0.20;;;;;;;;;;5082820;28;20338;-82
2021/11/16 14:39:15;;;;;;;44.95;8.30;;;;;;;;;;5082377;28;20803;-83
2021/11/16 14:41:51;;;;;;;57.50;54.35;;;;;;;;;;5080713;28;20115;-82
2021/11/16 14:44:19;;;;;;;1999.90;999.90;;;;;;;;;;5069549;28;20032;-82
2021/11/16 14:46:53;;;;;;;58.33;55.22;;;;;;;;;;5071646;28;20124;-82
2021/11/16 14:49:30;;;;;;;0.28;0.28;;;;;;;;;;5078219;28;20493;-82
2021/11/16 14:51:57;;;;;;;0.10;0.10;;;;;;;;;;5080800;28;20032;-82
2021/11/16 14:54:26;;;;;;;0.10;0.10;;;;;;;;;;5080082;28;20055;-82
2021/11/16 14:56:52;;;;;;;0.20;0.20;;;;;;;;;;5081147;28;20027;-82
2021/11/16 14:59:20;;;;;;;0.10;0.10;;;;;;;;;;5068590;28;20113;-82
2021/11/16 15:01:49;;;;;;;0.20;0.20;;;;;;;;;;5072097;28;20527;-83
2021/11/16 15:04:23;;;;;;;0.20;0.20;;;;;;;;;;5093391;28;20029;-82
2021/11/16 15:06:49;;;;;;;0.20;0.20;;;;;;;;;;5080673;28;20482;-82
2021/11/16 15:09:19;;;;;;;0.22;0.22;;;;;;;;;;5080207;28;20027;-82